Time;durP1;ratioP1;P1;durP2;ratioP2;P2;SDS_P1;SDS_P2;PMS_P1;PMS_P2;Temp;Humidity;BMP_temperature;BMP_pressure;BME280_temperature;BME280_humidity;BME280_pressure;Samples;Min_cycle;Max_cycle;Signal;HPM_P1;HPM_P2
2022/09/08 00:01:16;;;;;;;3.60;1.45;;;;;;;24.46;39.41;100854.28;16130172;19;131692;-60
2022/09/08 00:06:38;;;;;;;5.33;1.30;;;;;;;24.46;39.43;100854.28;16132460;19;129521;-60
2022/09/08 00:12:03;;;;;;;3.05;1.20;;;;;;;24.45;39.42;100857.34;16132196;19;129247;-60
2022/09/08 00:17:25;;;;;;;5.05;1.55;;;;;;;24.45;39.45;100858.19;16129814;19;130062;-60
2022/09/08 00:22:47;;;;;;;5.90;1.40;;;;;;;24.45;39.32;100837.78;16130383;19;128916;-60
2022/09/08 00:28:08;;;;;;;3.72;1.67;;;;;;;24.45;39.36;100837.78;16125890;19;130274;-60
2022/09/08 00:33:30;;;;;;;3.63;1.27;;;;;;;24.43;39.52;100810.94;16131063;19;129491;-60
2022/09/08 00:38:53;;;;;;;3.38;1.27;;;;;;;24.43;39.53;100804.53;16126906;19;129110;-60
2022/09/08 00:44:50;;;;;;;2.50;1.02;;;;;;;24.44;39.60;100800.59;16136692;19;129568;-60
2022/09/08 00:50:17;;;;;;;3.53;1.08;;;;;;;24.41;39.44;100787.19;16146006;19;129680;-60
2022/09/08 00:55:39;;;;;;;2.10;1.00;;;;;;;24.41;39.51;100770.41;16147433;19;130105;-60
2022/09/08 01:01:01;;;;;;;4.38;1.67;;;;;;;24.40;39.53;100755.63;16141392;19;129556;-60
2022/09/08 01:12:44;;;;;;;3.33;1.10;;;;;;;24.39;39.44;100742.75;16146666;19;129219;-60
2022/09/08 01:18:06;;;;;;;4.38;1.35;;;;;;;24.39;39.58;100755.88;16143658;19;129471;-60
2022/09/08 01:23:34;;;;;;;4.78;1.55;;;;;;;24.40;39.83;100743.56;16143127;19;129516;-61
2022/09/08 01:29:00;;;;;;;2.65;1.25;;;;;;;24.38;39.73;100734.63;16145174;19;129666;-61
2022/09/08 01:34:22;;;;;;;3.20;1.30;;;;;;;24.38;39.83;100729.03;16141301;19;129916;-60
2022/09/08 01:39:45;;;;;;;3.40;1.02;;;;;;;24.39;39.80;100733.53;16140878;19;129705;-61
2022/09/08 01:45:07;;;;;;;2.20;1.10;;;;;;;24.37;39.66;100745.00;16139402;19;130184;-60
2022/09/08 01:50:28;;;;;;;2.25;1.10;;;;;;;24.39;39.87;100744.69;16140904;19;129225;-61
2022/09/08 01:55:50;;;;;;;2.58;1.10;;;;;;;24.37;39.81;100728.22;16137663;19;129510;-61
2022/09/08 02:01:12;;;;;;;3.25;0.98;;;;;;;24.36;39.95;100748.09;16135080;19;129359;-62
2022/09/08 02:06:33;;;;;;;3.22;1.05;;;;;;;24.37;40.02;100749.78;16142480;19;129459;-61
2022/09/08 02:11:55;;;;;;;2.75;1.10;;;;;;;24.36;39.95;100745.31;16139515;19;129471;-61
2022/09/08 02:17:17;;;;;;;2.53;1.08;;;;;;;24.35;39.86;100743.63;16137398;19;129412;-61
2022/09/08 02:22:39;;;;;;;2.75;1.15;;;;;;;24.35;39.86;100752.03;16139307;19;129520;-61
2022/09/08 02:28:01;;;;;;;2.25;1.00;;;;;;;24.34;40.07;100747.56;16140513;19;129603;-60
2022/09/08 02:33:23;;;;;;;3.72;1.50;;;;;;;24.34;40.00;100739.16;16139165;19;129088;-60
2022/09/08 02:38:55;;;;;;;1.77;1.10;;;;;;;24.34;39.75;100728.81;16137077;19;129981;-60
2022/09/08 02:44:17;;;;;;;4.38;1.42;;;;;;;24.33;40.17;100731.91;16136008;19;129111;-60
2022/09/08 02:49:38;;;;;;;2.42;0.98;;;;;;;24.31;39.83;100728.56;16135531;19;129075;-61
2022/09/08 02:55:00;;;;;;;1.75;1.00;;;;;;;24.32;39.99;100744.22;16137489;19;128884;-61
2022/09/08 03:00:22;;;;;;;2.80;1.00;;;;;;;24.31;40.22;100722.97;16132820;19;130223;-61
2022/09/08 03:05:44;;;;;;;4.28;0.90;;;;;;;24.32;40.21;100733.03;16133112;19;131712;-61
2022/09/08 03:11:06;;;;;;;2.63;0.85;;;;;;;24.33;40.10;100731.91;16134931;19;128955;-62
2022/09/08 03:16:28;;;;;;;2.50;0.90;;;;;;;24.33;40.23;100727.13;16136173;19;130745;-66
2022/09/08 03:21:49;;;;;;;2.08;0.82;;;;;;;24.32;40.45;100730.22;16130210;19;129402;-62
2022/09/08 03:27:11;;;;;;;1.90;0.80;;;;;;;24.32;40.42;100735.81;16135786;19;129740;-61
2022/09/08 03:32:34;;;;;;;2.40;1.17;;;;;;;24.31;40.19;100728.56;16136949;19;129909;-61
2022/09/08 03:37:56;;;;;;;2.67;0.90;;;;;;;24.31;40.52;100723.78;16135809;19;129233;-61
2022/09/08 03:43:18;;;;;;;3.80;0.93;;;;;;;24.31;40.24;100725.75;16137063;19;129258;-56
2022/09/08 03:48:40;;;;;;;5.00;0.90;;;;;;;24.30;40.32;100727.72;16136444;19;129854;-61
2022/09/08 03:59:42;;;;;;;2.65;0.93;;;;;;;24.29;40.25;100716.81;16132268;19;130690;-69
2022/09/08 04:05:05;;;;;;;2.65;1.00;;;;;;;24.29;40.32;100722.41;16135122;19;130104;-69
2022/09/08 04:10:27;;;;;;;3.65;0.93;;;;;;;24.27;40.15;100706.75;16133806;19;129649;-72
2022/09/08 04:15:49;;;;;;;2.42;0.90;;;;;;;24.27;40.52;100703.97;16132227;19;131020;-71
2022/09/08 04:21:11;;;;;;;2.03;0.75;;;;;;;24.26;40.48;100691.13;16127147;19;130041;-66
2022/09/08 04:26:33;;;;;;;2.85;0.80;;;;;;;24.25;40.16;100681.06;16134950;19;130023;-66
2022/09/08 04:31:55;;;;;;;2.03;0.70;;;;;;;24.26;40.55;100707.06;16133610;19;129486;-69
2022/09/08 04:37:18;;;;;;;1.67;0.90;;;;;;;24.25;40.52;100716.56;16134294;19;129562;-61
2022/09/08 04:42:39;;;;;;;2.72;0.90;;;;;;;24.24;40.62;100715.75;16127585;19;129457;-60
2022/09/08 04:48:01;;;;;;;2.97;0.90;;;;;;;24.23;40.59;100708.47;16132202;19;130011;-61
2022/09/08 04:53:25;;;;;;;1.73;0.73;;;;;;;24.24;40.26;100712.97;16133890;19;129543;-61
2022/09/08 04:58:48;;;;;;;1.20;0.63;;;;;;;24.24;40.59;100714.88;16131507;19;131056;-61
2022/09/08 05:04:15;;;;;;;2.13;0.90;;;;;;;24.23;40.62;100722.44;16134060;19;129423;-61
2022/09/08 05:09:37;;;;;;;3.70;0.90;;;;;;;24.22;40.61;100723.56;16128777;19;129500;-61
2022/09/08 05:14:59;;;;;;;3.90;0.73;;;;;;;24.21;40.78;100721.88;16130162;19;130208;-61
2022/09/08 05:20:21;;;;;;;4.63;1.20;;;;;;;24.20;40.33;100713.78;16126175;19;129684;-62
2022/09/08 05:25:42;;;;;;;3.00;0.70;;;;;;;24.20;40.81;100717.41;16132255;19;128984;-61
2022/09/08 05:31:06;;;;;;;12.23;1.67;;;;;;;24.19;40.65;100718.53;16139178;19;130702;-61
2022/09/08 05:36:31;;;;;;;6.53;1.25;;;;;;;24.19;40.78;100720.47;16140977;19;130229;-62
2022/09/08 05:41:52;;;;;;;8.60;1.00;;;;;;;24.17;41.08;100712.41;16140628;19;129009;-61
2022/09/08 05:47:14;;;;;;;9.00;2.22;;;;;;;24.15;40.88;100714.66;16138368;19;129315;-62
2022/09/08 05:52:36;;;;;;;8.88;1.77;;;;;;;24.12;41.00;100709.66;16142736;19;129148;-62
2022/09/08 05:57:57;;;;;;;13.43;2.38;;;;;;;24.07;41.31;100704.09;16142263;19;130708;-65
2022/09/08 06:03:39;;;;;;;5.88;2.08;;;;;;;24.02;41.51;100721.72;16143478;19;130929;-63
2022/09/08 06:09:03;;;;;;;5.10;2.00;;;;;;;24.00;41.45;100728.72;16139023;19;130366;-61
2022/09/08 06:14:25;;;;;;;8.15;2.38;;;;;;;23.96;41.74;100734.88;16136513;19;130038;-61
2022/09/08 06:19:47;;;;;;;6.20;2.20;;;;;;;23.92;41.40;100728.19;16138299;19;129574;-62
2022/09/08 06:25:09;;;;;;;6.68;1.85;;;;;;;23.92;41.42;100732.97;16139729;19;128934;-61
2022/09/08 06:30:31;;;;;;;6.38;1.42;;;;;;;23.95;41.19;100741.59;16143605;19;129317;-61
2022/09/08 06:36:21;;;;;;;7.93;1.60;;;;;;;23.97;41.31;100744.94;16142956;19;128949;-62
2022/09/08 06:41:47;;;;;;;7.38;1.80;;;;;;;24.03;40.90;100734.56;16134640;19;128818;-64
2022/09/08 06:47:17;;;;;;;6.20;1.90;;;;;;;24.03;40.87;100728.97;16134214;19;129633;-62
2022/09/08 06:52:51;;;;;;;7.47;1.65;;;;;;;24.04;41.28;100743.78;16139096;19;129824;-62
2022/09/08 06:58:29;;;;;;;5.03;1.27;;;;;;;24.03;41.50;100733.72;16140241;19;129438;-62
2022/09/08 07:04:20;;;;;;;9.23;1.50;;;;;;;24.03;41.32;100739.31;16138169;19;129628;-62
2022/09/08 07:09:58;;;;;;;13.10;1.67;;;;;;;24.03;41.14;100733.72;16136935;19;129507;-62
2022/09/08 07:15:20;;;;;;;5.80;1.60;;;;;;;24.01;41.24;100741.56;16137682;19;129564;-62
2022/09/08 07:20:42;;;;;;;11.07;1.92;;;;;;;24.02;41.19;100740.44;16134621;19;128806;-64
2022/09/08 07:26:09;;;;;;;6.60;1.65;;;;;;;24.03;41.28;100742.09;16139819;19;129559;-62
2022/09/08 07:31:39;;;;;;;4.65;1.20;;;;;;;24.03;41.29;100742.09;16137150;19;129739;-62
2022/09/08 07:37:08;;;;;;;8.65;1.35;;;;;;;24.04;41.12;100746.56;16139780;19;128860;-62
2022/09/08 07:42:30;;;;;;;8.82;1.33;;;;;;;24.03;41.19;100748.53;16134353;19;129468;-62
2022/09/08 07:48:04;;;;;;;6.65;1.60;;;;;;;24.04;41.04;100740.97;16138369;19;129153;-62
2022/09/08 07:53:25;;;;;;;5.25;1.27;;;;;;;24.04;41.06;100736.25;16137028;19;129467;-62
2022/09/08 07:59:02;;;;;;;3.95;1.15;;;;;;;24.08;40.75;100742.09;16166140;19;129058;-63
2022/09/08 08:05:11;;;;;;;5.30;1.30;;;;;;;24.08;41.00;100736.50;16219564;19;128259;-62
2022/09/08 08:11:04;;;;;;;4.07;1.35;;;;;;;24.09;41.04;100738.16;16211144;19;129398;-62
2022/09/08 08:16:54;;;;;;;5.28;1.00;;;;;;;24.12;40.85;100738.41;16212592;19;130108;-62
2022/09/08 08:22:25;;;;;;;1.95;0.90;;;;;;;24.14;41.05;100740.09;16209677;19;129291;-62
2022/09/08 08:28:09;;;;;;;4.32;0.93;;;;;;;24.14;40.84;100740.91;16213594;19;128379;-62
2022/09/08 08:33:45;;;;;;;2.20;0.90;;;;;;;24.18;40.86;100747.59;16211493;19;130829;-62
2022/09/08 08:39:16;;;;;;;5.15;1.00;;;;;;;24.19;40.82;100756.81;16209277;19;129316;-64
2022/09/08 08:44:44;;;;;;;4.28;1.13;;;;;;;24.22;40.74;100754.31;16208965;19;129089;-62
2022/09/08 08:50:21;;;;;;;3.92;1.10;;;;;;;24.27;40.64;100757.06;16176081;19;129168;-62
2022/09/08 08:56:02;;;;;;;4.82;1.02;;;;;;;24.31;40.39;100757.31;16157905;19;128821;-62
2022/09/08 09:01:57;;;;;;;2.40;1.00;;;;;;;24.31;40.47;100751.75;16159922;19;128795;-62
2022/09/08 09:07:40;;;;;;;2.78;0.80;;;;;;;24.35;40.51;100746.44;16177713;19;129076;-62
2022/09/08 09:13:35;;;;;;;2.58;0.93;;;;;;;24.36;40.35;100736.91;16180923;19;129393;-62
2022/09/08 09:19:20;;;;;;;4.65;0.90;;;;;;;24.36;40.40;100740.53;16183724;19;129508;-62
2022/09/08 09:25:09;;;;;;;3.42;1.08;;;;;;;24.38;40.34;100738.28;16183432;19;128924;-63
2022/09/08 09:30:59;;;;;;;5.90;1.23;;;;;;;24.37;40.34;100727.41;16180150;19;129208;-62
2022/09/08 09:36:34;;;;;;;2.70;1.13;;;;;;;24.39;40.37;100741.91;16154499;19;129794;-62
2022/09/08 09:41:59;;;;;;;3.87;1.10;;;;;;;24.39;40.28;100730.72;16141886;19;129318;-62
2022/09/08 09:47:39;;;;;;;2.73;0.90;;;;;;;24.40;40.08;100737.97;16140335;19;130155;-62
2022/09/08 09:53:19;;;;;;;6.72;0.98;;;;;;;24.40;40.17;100732.41;16145886;19;130729;-62
2022/09/08 09:59:13;;;;;;;4.93;0.90;;;;;;;24.40;40.04;100749.16;16145350;19;130760;-61
2022/09/08 10:05:12;;;;;;;4.15;1.00;;;;;;;24.39;40.04;100739.09;16143585;19;129562;-62
2022/09/08 10:10:59;;;;;;;4.00;1.10;;;;;;;24.37;40.21;100739.41;16142845;19;129331;-62
2022/09/08 10:16:59;;;;;;;5.22;0.90;;;;;;;24.38;39.82;100741.09;16142496;19;129545;-62
2022/09/08 10:22:44;;;;;;;6.88;1.17;;;;;;;24.37;39.77;100738.59;16142835;19;129599;-62
2022/09/08 10:28:51;;;;;;;2.17;0.88;;;;;;;24.35;39.84;100741.66;16142631;19;129323;-62
2022/09/08 10:34:49;;;;;;;2.63;0.87;;;;;;;24.37;39.34;100745.00;16144474;19;129641;-62
2022/09/08 10:40:25;;;;;;;3.45;1.00;;;;;;;24.37;39.81;100745.00;16145017;19;129474;-62
2022/09/08 10:46:14;;;;;;;2.55;1.00;;;;;;;24.37;39.50;100728.22;16140879;19;129960;-63
2022/09/08 10:51:36;;;;;;;3.40;1.10;;;;;;;24.36;39.50;100736.91;16143663;19;129274;-62
2022/09/08 10:56:58;;;;;;;1.73;0.75;;;;;;;24.37;39.09;100741.38;16140649;19;129612;-62
2022/09/08 11:02:34;;;;;;;3.38;1.20;;;;;;;24.38;39.29;100734.63;16138864;19;129177;-62
2022/09/08 11:08:15;;;;;;;3.50;0.95;;;;;;;24.36;39.41;100739.72;16141232;19;129728;-62
2022/09/08 11:14:06;;;;;;;3.40;1.15;;;;;;;24.34;39.54;100741.97;16139228;19;129363;-62
2022/09/08 11:19:41;;;;;;;2.92;0.90;;;;;;;24.35;39.78;100735.25;16138408;19;131542;-62
2022/09/08 11:25:24;;;;;;;2.15;0.90;;;;;;;24.35;39.22;100729.66;16136398;19;129856;-62
2022/09/08 11:31:05;;;;;;;2.90;1.17;;;;;;;24.34;39.31;100719.59;16139963;19;128874;-62
2022/09/08 11:36:44;;;;;;;2.53;0.80;;;;;;;24.33;39.32;100723.50;16139413;19;128943;-62
2022/09/08 11:42:37;;;;;;;3.50;1.02;;;;;;;24.34;39.64;100722.38;16133994;19;129225;-62
2022/09/08 11:48:27;;;;;;;4.10;1.10;;;;;;;24.33;39.33;100717.91;16137185;19;129290;-61
2022/09/08 11:54:15;;;;;;;3.25;1.00;;;;;;;24.32;39.05;100716.25;16135028;19;129805;-63
2022/09/08 12:00:19;;;;;;;4.55;0.90;;;;;;;24.32;38.88;100713.44;16136276;19;129267;-62
2022/09/08 12:05:52;;;;;;;1.73;0.65;;;;;;;24.32;39.15;100708.69;16130796;19;128944;-62
2022/09/08 12:11:58;;;;;;;2.60;0.90;;;;;;;24.32;39.46;100697.50;16129987;19;129785;-62
2022/09/08 12:17:57;;;;;;;3.00;1.08;;;;;;;24.32;38.98;100696.69;16136465;19;129634;-63
2022/09/08 12:23:51;;;;;;;3.03;1.00;;;;;;;24.30;38.79;100682.16;16130811;19;131208;-62
2022/09/08 12:29:52;;;;;;;4.03;1.20;;;;;;;24.31;38.64;100701.41;16116989;19;129047;-62
2022/09/08 12:35:29;;;;;;;2.33;0.70;;;;;;;24.32;38.51;100691.09;16122123;19;130921;-63
2022/09/08 12:40:59;;;;;;;4.22;1.02;;;;;;;24.32;38.15;100682.69;16131027;19;129253;-62
2022/09/08 12:46:45;;;;;;;2.88;0.90;;;;;;;24.33;38.09;100681.56;16134365;19;129951;-62
2022/09/08 12:52:27;;;;;;;5.87;0.97;;;;;;;24.33;38.11;100681.56;16138890;19;129933;-62
2022/09/08 12:58:01;;;;;;;3.63;1.00;;;;;;;24.34;38.20;100672.88;16138371;19;130558;-62
2022/09/08 13:03:34;;;;;;;4.53;1.10;;;;;;;24.35;38.16;100670.94;16138169;19;129331;-62
2022/09/08 13:09:01;;;;;;;2.83;0.95;;;;;;;24.34;38.14;100672.06;16147508;19;129568;-62
2022/09/08 13:15:04;;;;;;;2.45;0.82;;;;;;;24.33;38.04;100693.59;16145423;19;129288;-63
2022/09/08 13:20:36;;;;;;;4.65;1.00;;;;;;;24.35;38.33;100696.09;16138639;19;130671;-62
2022/09/08 13:26:29;;;;;;;2.70;0.90;;;;;;;24.34;38.02;100691.63;16136610;19;129320;-63
2022/09/08 13:32:22;;;;;;;6.60;0.90;;;;;;;24.33;38.13;100701.16;16135881;19;129671;-63
2022/09/08 13:38:02;;;;;;;4.20;1.00;;;;;;;24.31;38.31;100711.78;16136596;19;129828;-62
2022/09/08 13:43:43;;;;;;;3.35;1.10;;;;;;;24.33;38.44;100717.91;16130449;19;129262;-63
2022/09/08 13:49:22;;;;;;;4.10;1.05;;;;;;;24.31;38.69;100715.41;16133705;19;130092;-63
2022/09/08 13:55:09;;;;;;;5.88;1.40;;;;;;;24.31;38.30;100722.97;16135349;19;129400;-63
2022/09/08 14:01:14;;;;;;;5.05;1.02;;;;;;;24.30;38.20;100716.56;16135279;19;129825;-63
2022/09/08 14:06:59;;;;;;;3.42;1.10;;;;;;;24.29;38.49;100709.28;16136318;19;130826;-63
2022/09/08 14:12:27;;;;;;;3.77;0.90;;;;;;;24.27;38.25;100694.75;16144648;19;129524;-63
2022/09/08 14:18:20;;;;;;;2.97;0.95;;;;;;;24.28;38.25;100690.84;16144110;19;129661;-63
2022/09/08 14:24:07;;;;;;;2.42;0.80;;;;;;;24.28;38.49;100679.66;16138602;19;129793;-62
2022/09/08 14:29:31;;;;;;;6.18;1.20;;;;;;;24.27;37.83;100690.00;16141340;19;129548;-60
2022/09/08 14:35:19;;;;;;;4.43;0.90;;;;;;;24.30;38.03;100684.94;16144596;19;129594;-61
2022/09/08 14:41:05;;;;;;;3.10;0.93;;;;;;;24.30;37.89;100676.56;16137343;19;129815;-62
2022/09/08 14:46:38;;;;;;;6.00;1.00;;;;;;;24.30;38.05;100682.16;16135689;19;129366;-62
2022/09/08 14:52:10;;;;;;;2.90;0.73;;;;;;;24.30;38.03;100671.81;16140551;19;129802;-62
2022/09/08 14:57:44;;;;;;;4.18;1.00;;;;;;;24.31;38.07;100664.25;16142037;19;129511;-63
2022/09/08 15:03:30;;;;;;;2.92;0.70;;;;;;;24.31;38.24;100653.06;16135281;19;128973;-63
2022/09/08 15:09:19;;;;;;;3.90;0.85;;;;;;;24.30;38.10;100654.19;16138382;19;130603;-62
2022/09/08 15:15:02;;;;;;;2.95;1.00;;;;;;;24.30;37.90;100657.00;16140221;19;129372;-62
2022/09/08 15:20:35;;;;;;;3.78;1.25;;;;;;;24.29;38.21;100666.50;16132370;19;129875;-62
2022/09/08 15:26:00;;;;;;;6.03;0.80;;;;;;;24.28;38.46;100668.47;16135951;19;129030;-63
2022/09/08 15:31:48;;;;;;;3.45;0.80;;;;;;;24.29;38.36;100667.34;16140986;19;129554;-63
2022/09/08 15:37:20;;;;;;;3.53;0.82;;;;;;;24.29;38.46;100669.31;16137853;19;128898;-63
2022/09/08 15:42:41;;;;;;;5.07;0.90;;;;;;;24.26;38.62;100665.94;16134448;19;129407;-64
2022/09/08 15:48:11;;;;;;;4.75;1.00;;;;;;;24.26;38.68;100659.53;16139132;19;129521;-67
2022/09/08 15:53:55;;;;;;;3.53;0.90;;;;;;;24.25;38.33;100667.06;16137253;19;128902;-63
2022/09/08 15:59:40;;;;;;;8.57;1.30;;;;;;;24.21;39.03;100668.78;16136706;19;129706;-60
2022/09/08 16:05:15;;;;;;;4.93;1.15;;;;;;;24.21;38.89;100671.56;16147375;19;129453;-64
2022/09/08 16:10:55;;;;;;;;;;;;;;;24.17;39.04;100664.88;16160753;19;129260;-64
2022/09/08 16:16:41;;;;;;;10.07;2.00;;;;;;;24.20;39.16;100663.47;16158422;19;129751;-64
2022/09/08 16:22:15;;;;;;;14.68;2.67;;;;;;;24.20;39.65;100661.50;16157813;19;129452;-64
2022/09/08 16:27:49;;;;;;;13.75;3.13;;;;;;;24.20;39.17;100664.31;16152961;19;129555;-64
2022/09/08 16:33:17;;;;;;;7.10;1.95;;;;;;;24.19;39.49;100671.03;16151957;19;129884;-64
2022/09/08 16:38:52;;;;;;;8.30;2.25;;;;;;;24.18;39.86;100654.56;16153155;19;128791;-64
2022/09/08 16:44:16;;;;;;;8.98;1.85;;;;;;;24.16;39.87;100649.22;16146655;19;130147;-61
2022/09/08 16:49:43;;;;;;;8.82;1.90;;;;;;;24.16;39.89;100657.63;16150091;19;128979;-62
2022/09/08 16:55:30;;;;;;;8.85;1.95;;;;;;;24.16;40.10;100649.22;16148119;19;129551;-61
2022/09/08 17:01:10;;;;;;;9.02;1.65;;;;;;;24.14;40.24;100645.91;16151251;19;129575;-62
2022/09/08 17:06:45;;;;;;;12.57;1.65;;;;;;;24.13;40.14;100641.44;16148345;19;130012;-62
2022/09/08 17:12:14;;;;;;;11.63;1.87;;;;;;;24.12;40.16;100645.38;16152076;19;129873;-61
2022/09/08 17:18:10;;;;;;;6.53;1.27;;;;;;;24.10;40.28;100634.47;16145871;19;131009;-61
2022/09/08 17:23:32;;;;;;;7.80;1.38;;;;;;;24.06;40.12;100646.53;16147852;19;130171;-61
2022/09/08 17:28:57;;;;;;;6.50;1.67;;;;;;;24.05;40.35;100636.47;16166967;19;131656;-62
2022/09/08 17:34:22;;;;;;;;;;;;;;;24.00;40.24;100650.50;16161836;19;129483;-62
2022/09/08 17:40:21;;;;;;;7.53;1.25;;;;;;;24.03;40.42;100667.50;16154117;19;129692;-62
2022/09/08 17:45:52;;;;;;;11.13;1.92;;;;;;;24.02;40.63;100664.97;16146967;19;129094;-61
2022/09/08 17:51:21;;;;;;;8.90;1.35;;;;;;;24.00;40.79;100651.31;16151943;19;130389;-62
2022/09/08 17:56:58;;;;;;;9.77;1.50;;;;;;;24.01;41.33;100666.09;16149837;19;129803;-69
2022/09/08 18:02:46;;;;;;;9.52;1.45;;;;;;;24.02;41.25;100643.47;16142779;19;129185;-67
2022/09/08 18:08:07;;;;;;;7.05;1.52;;;;;;;24.01;41.32;100630.63;16144583;19;129045;-68
2022/09/08 18:13:29;;;;;;;7.35;1.30;;;;;;;24.01;41.41;100627.84;16144758;19;129266;-67
2022/09/08 18:18:57;;;;;;;6.60;1.70;;;;;;;24.04;41.73;100634.78;16146324;19;129068;-68
2022/09/08 18:24:23;;;;;;;14.38;2.45;;;;;;;24.03;41.81;100627.53;16136513;19;130737;-69
2022/09/08 18:29:52;;;;;;;15.20;1.70;;;;;;;24.03;41.86;100622.78;16142278;19;130220;-66
2022/09/08 18:35:46;;;;;;;15.23;2.10;;;;;;;24.06;41.90;100618.56;16136914;19;128874;-65
2022/09/08 18:41:13;;;;;;;16.45;2.17;;;;;;;24.06;42.09;100632.53;16136464;19;129552;-65
2022/09/08 18:46:44;;;;;;;15.32;1.63;;;;;;;24.11;42.24;100640.91;16135536;19;130802;-61
2022/09/08 18:52:21;;;;;;;7.30;1.65;;;;;;;24.13;42.23;100644.22;16133015;19;129647;-59
2022/09/08 18:57:43;;;;;;;25.00;2.88;;;;;;;24.16;42.33;100645.63;16131767;19;129796;-58
2022/09/08 19:03:26;;;;;;;22.02;2.53;;;;;;;24.21;42.26;100660.38;16128409;19;129556;-60
2022/09/08 19:08:53;;;;;;;22.90;2.70;;;;;;;24.21;42.59;100768.53;16130651;19;130536;-53
2022/09/08 19:14:43;;;;;;;19.70;2.15;;;;;;;24.24;42.44;100757.69;16125482;19;128885;-60
2022/09/08 19:20:16;;;;;;;11.15;2.22;;;;;;;24.25;41.93;100736.97;16138044;19;129362;-59
2022/09/08 19:25:41;;;;;;;11.90;2.28;;;;;;;24.22;41.70;100714.31;16131270;19;129438;-62
2022/09/08 19:37:09;;;;;;;14.57;2.08;;;;;;;24.23;42.17;100772.75;16126310;19;131921;-57
2022/09/08 19:42:44;;;;;;;15.18;2.00;;;;;;;24.27;41.84;100796.22;16127669;19;129541;-53
2022/09/08 19:48:12;;;;;;;20.63;2.75;;;;;;;24.30;41.87;100778.06;16127265;19;129839;-58
2022/09/08 19:53:40;;;;;;;13.18;2.30;;;;;;;24.33;42.16;100759.84;16127442;19;129384;-56
2022/09/08 19:59:31;;;;;;;12.18;2.53;;;;;;;24.34;42.19;100750.34;16132232;19;129390;-61
2022/09/08 20:05:11;;;;;;;13.18;2.28;;;;;;;24.34;42.59;100756.75;16126884;19;130501;-56
2022/09/08 20:10:33;;;;;;;13.57;2.10;;;;;;;24.35;42.41;100729.66;16130313;19;130175;-67
2022/09/08 20:16:03;;;;;;;10.70;1.80;;;;;;;24.35;42.36;100719.28;16126434;19;133228;-69
2022/09/08 20:21:41;;;;;;;9.83;2.10;;;;;;;24.37;42.00;100716.22;16124956;19;129740;-66
2022/09/08 20:27:14;;;;;;;7.78;2.03;;;;;;;24.39;42.27;100731.56;16126964;19;129793;-57
2022/09/08 20:32:54;;;;;;;11.52;2.42;;;;;;;24.39;42.36;100727.94;16128817;19;129444;-68
2022/09/08 20:38:34;;;;;;;12.13;2.25;;;;;;;24.40;42.65;100710.03;16124500;19;129760;-69
2022/09/08 20:44:06;;;;;;;15.13;2.13;;;;;;;24.40;42.38;100710.88;16126638;19;129377;-61
2022/09/08 20:49:42;;;;;;;12.30;2.00;;;;;;;24.42;42.26;100746.91;16120229;19;129954;-67
2022/09/08 20:55:15;;;;;;;11.27;1.98;;;;;;;24.39;42.12;100747.50;16118389;19;129807;-63
2022/09/08 21:00:38;;;;;;;8.25;1.90;;;;;;;24.38;42.01;100743.88;16130882;19;129790;-63
2022/09/08 21:06:22;;;;;;;7.53;2.28;;;;;;;24.37;42.07;100744.19;16138327;19;130355;-63
2022/09/08 21:11:44;;;;;;;7.95;2.22;;;;;;;24.33;42.05;100737.50;16140652;19;129488;-63
2022/09/08 21:17:18;;;;;;;11.45;2.15;;;;;;;24.32;41.70;100747.81;16139017;19;129406;-61
2022/09/08 21:22:55;;;;;;;8.60;2.22;;;;;;;24.28;41.97;100735.56;16139718;19;129823;-67
2022/09/08 21:28:34;;;;;;;11.57;2.15;;;;;;;24.27;41.99;100745.91;16137905;19;130185;-65
2022/09/08 21:34:30;;;;;;;7.95;2.22;;;;;;;24.22;42.02;100729.16;16139624;19;129516;-66
2022/09/08 21:40:17;;;;;;;11.27;2.47;;;;;;;24.19;42.40;100726.91;16137903;19;129810;-61
2022/09/08 21:45:45;;;;;;;10.43;2.88;;;;;;;24.18;42.04;100725.25;16139486;19;131066;-61
2022/09/08 21:51:10;;;;;;;8.52;2.20;;;;;;;24.16;42.02;100732.25;16139293;19;130627;-62
2022/09/08 21:56:40;;;;;;;;;;;;;;;24.12;42.16;100724.44;16167028;19;129392;-61
2022/09/08 22:02:18;;;;;;;5.32;2.00;;;;;;;24.14;42.20;100724.16;16177168;19;129036;-62
2022/09/08 22:07:42;;;;;;;7.50;2.30;;;;;;;24.10;42.08;100718.31;16177148;19;133641;-62
2022/09/08 22:13:23;;;;;;;9.03;2.07;;;;;;;24.10;41.66;100723.91;16182059;19;129343;-63
2022/09/08 22:19:03;;;;;;;7.45;2.13;;;;;;;24.08;41.76;100719.72;16178998;19;130541;-62
2022/09/08 22:24:49;;;;;;;4.07;1.40;;;;;;;24.08;41.96;100716.94;16188267;19;129694;-61
2022/09/08 22:30:14;;;;;;;4.47;1.80;;;;;;;24.05;41.66;100715.56;16191105;19;130104;-61
2022/09/08 22:35:44;;;;;;;6.97;1.57;;;;;;;24.05;41.91;100718.34;16158292;19;130279;-64
2022/09/08 22:41:26;;;;;;;5.40;1.90;;;;;;;24.03;41.98;100716.94;16138376;19;129358;-67
2022/09/08 22:47:16;;;;;;;7.40;1.73;;;;;;;24.04;42.13;100727.00;16133793;19;129495;-61
2022/09/08 22:53:21;;;;;;;7.13;1.52;;;;;;;24.03;41.91;100728.13;16131869;19;130470;-62
2022/09/08 22:58:52;;;;;;;6.15;1.67;;;;;;;24.01;41.87;100730.38;16134546;19;129368;-60
2022/09/08 23:04:24;;;;;;;2.83;1.25;;;;;;;23.99;41.81;100721.47;16131789;19;130448;-60
2022/09/08 23:09:46;;;;;;;2.63;1.27;;;;;;;23.97;42.29;100719.78;16132041;19;129395;-60
2022/09/08 23:15:24;;;;;;;3.92;1.20;;;;;;;23.97;41.56;100716.16;16133539;19;130771;-60
2022/09/08 23:20:59;;;;;;;5.45;1.35;;;;;;;23.96;41.96;100720.06;16133737;19;129883;-60
2022/09/08 23:26:32;;;;;;;3.22;1.30;;;;;;;23.93;42.11;100707.50;16130910;19;129936;-60
2022/09/08 23:32:00;;;;;;;3.45;1.33;;;;;;;23.92;41.63;100719.81;16133691;19;129497;-60
2022/09/08 23:37:34;;;;;;;8.02;1.60;;;;;;;23.91;41.83;100717.31;16133511;19;129783;-60
2022/09/08 23:42:57;;;;;;;3.28;1.50;;;;;;;23.90;42.00;100724.03;16132169;19;129790;-60
2022/09/08 23:48:22;;;;;;;3.38;1.30;;;;;;;23.87;41.83;100708.69;16131682;19;129508;-59
2022/09/08 23:53:46;;;;;;;;;;;;;;;23.84;41.82;100712.03;16135895;19;129657;-60
2022/09/08 23:59:10;;;;;;;4.13;1.60;;;;;;;23.86;41.86;100701.41;16129519;19;128930;-60
